Time;durP1;ratioP1;P1;durP2;ratioP2;P2;SDS_P1;SDS_P2;PMS_P1;PMS_P2;Temp;Humidity;BMP_temperature;BMP_pressure;BME280_temperature;BME280_humidity;BME280_pressure;Samples;Min_cycle;Max_cycle;Signal;HPM_P1;HPM_P2
2024/01/30 00:01:46;;;;;;;20.42;12.77;;;;;;;;;;5119528;27;20383;-85
2024/01/30 00:04:12;;;;;;;;;;;;;;;;;;5108764;27;20043;-86
2024/01/30 00:06:38;;;;;;;22.52;12.40;;;;;;;;;;5131106;27;19929;-84
2024/01/30 00:09:05;;;;;;;20.08;10.88;;;;;;;;;;5117963;27;20050;-85
2024/01/30 00:11:31;;;;;;;22.92;11.73;;;;;;;;;;5131604;27;20122;-85
2024/01/30 00:13:57;;;;;;;24.52;12.60;;;;;;;;;;5116360;27;20047;-85
2024/01/30 00:16:26;;;;;;;;;;;;;;;;;;5113200;27;20505;-84
2024/01/30 00:18:53;;;;;;;22.90;11.88;;;;;;;;;;5118344;27;20329;-85
2024/01/30 00:21:19;;;;;;;22.55;11.48;;;;;;;;;;5112637;27;20032;-83
2024/01/30 00:23:45;;;;;;;;;;;;;;;;;;5124222;27;20039;-86
2024/01/30 00:26:14;;;;;;;24.40;11.40;;;;;;;;;;5113416;27;20409;-86
2024/01/30 00:28:44;;;;;;;20.00;11.70;;;;;;;;;;5110251;27;20038;-85
2024/01/30 00:31:13;;;;;;;26.42;13.55;;;;;;;;;;5127949;27;20043;-85
2024/01/30 00:33:39;;;;;;;20.15;12.45;;;;;;;;;;5128461;27;20042;-85
2024/01/30 00:36:08;;;;;;;24.25;12.77;;;;;;;;;;5102020;27;20488;-86
2024/01/30 00:38:35;;;;;;;23.42;12.10;;;;;;;;;;5128809;27;20038;-85
2024/01/30 00:41:01;;;;;;;;;;;;;;;;;;5102457;27;20136;-85
2024/01/30 00:43:28;;;;;;;22.05;11.88;;;;;;;;;;5128602;27;19923;-86
2024/01/30 00:45:54;;;;;;;21.45;12.20;;;;;;;;;;5122425;27;20125;-85
2024/01/30 00:48:20;;;;;;;;;;;;;;;;;;5116166;27;20129;-83
2024/01/30 00:50:46;;;;;;;18.90;11.45;;;;;;;;;;5134467;27;20546;-85
2024/01/30 00:53:12;;;;;;;21.63;11.77;;;;;;;;;;5128567;27;20039;-84
2024/01/30 00:55:38;;;;;;;20.17;11.43;;;;;;;;;;5098088;27;20055;-84
2024/01/30 00:58:04;;;;;;;20.45;11.05;;;;;;;;;;5115252;27;20062;-85
2024/01/30 01:00:31;;;;;;;19.92;11.30;;;;;;;;;;5128886;27;20085;-85
2024/01/30 01:02:58;;;;;;;20.77;11.77;;;;;;;;;;5135775;27;20729;-85
2024/01/30 01:05:24;;;;;;;21.25;11.48;;;;;;;;;;5134525;27;20046;-83
2024/01/30 01:07:50;;;;;;;;;;;;;;;;;;5131536;27;20134;-85
2024/01/30 01:10:19;;;;;;;19.60;11.10;;;;;;;;;;5115382;27;19974;-85
2024/01/30 01:12:45;;;;;;;25.95;13.27;;;;;;;;;;5097962;27;20094;-85
2024/01/30 01:15:11;;;;;;;21.98;11.68;;;;;;;;;;5097924;27;20059;-85
2024/01/30 01:17:38;;;;;;;26.10;12.65;;;;;;;;;;5114727;27;20047;-84
2024/01/30 01:20:08;;;;;;;19.70;11.25;;;;;;;;;;5096852;27;20492;-84
2024/01/30 01:22:34;;;;;;;21.05;10.70;;;;;;;;;;5112682;27;20074;-85
2024/01/30 01:25:00;;;;;;;23.08;11.60;;;;;;;;;;5115120;27;20039;-85
2024/01/30 01:27:26;;;;;;;21.20;11.30;;;;;;;;;;5114554;27;20054;-84
2024/01/30 01:29:52;;;;;;;;;;;;;;;;;;5098096;27;20043;-85
2024/01/30 01:32:18;;;;;;;18.67;10.90;;;;;;;;;;5096021;27;19929;-85
2024/01/30 01:34:44;;;;;;;;;;;;;;;;;;5129073;27;20035;-85
2024/01/30 01:37:11;;;;;;;19.13;10.20;;;;;;;;;;5133642;27;19919;-85
2024/01/30 01:39:36;;;;;;;;;;;;;;;;;;5117832;27;20035;-85
2024/01/30 01:42:03;;;;;;;17.98;10.18;;;;;;;;;;5135071;27;20275;-85
2024/01/30 01:44:29;;;;;;;;;;;;;;;;;;5115129;27;20043;-84
2024/01/30 01:46:55;;;;;;;17.00;10.43;;;;;;;;;;5135141;27;20233;-85
2024/01/30 01:49:30;;;;;;;19.60;10.35;;;;;;;;;;5099629;27;20043;-85
2024/01/30 01:51:57;;;;;;;18.35;10.80;;;;;;;;;;5113094;27;20054;-85
2024/01/30 01:54:24;;;;;;;19.25;10.68;;;;;;;;;;5096896;28;20078;-85
2024/01/30 01:56:51;;;;;;;20.80;10.60;;;;;;;;;;5113422;28;20049;-84
2024/01/30 01:59:18;;;;;;;20.70;11.60;;;;;;;;;;5116208;27;20049;-85
2024/01/30 02:01:46;;;;;;;23.10;10.98;;;;;;;;;;5116568;27;20488;-86
2024/01/30 02:04:12;;;;;;;19.67;10.13;;;;;;;;;;5108361;27;20039;-86
2024/01/30 02:06:39;;;;;;;21.60;10.27;;;;;;;;;;5132856;27;20054;-86
2024/01/30 02:09:05;;;;;;;21.30;10.20;;;;;;;;;;5117048;27;20039;-85
2024/01/30 02:11:31;;;;;;;20.55;10.70;;;;;;;;;;5080463;28;20133;-84
2024/01/30 02:13:57;;;;;;;;;;;;;;;;;;5115053;28;20044;-85
2024/01/30 02:16:23;;;;;;;19.35;10.00;;;;;;;;;;5114179;28;19926;-85
2024/01/30 02:18:49;;;;;;;17.55;9.77;;;;;;;;;;5113600;28;20071;-85
2024/01/30 02:21:16;;;;;;;17.55;10.00;;;;;;;;;;5098367;28;20047;-85
2024/01/30 02:23:43;;;;;;;19.50;10.38;;;;;;;;;;5097144;28;20047;-85
2024/01/30 02:26:09;;;;;;;23.42;10.35;;;;;;;;;;5114400;28;20047;-85
2024/01/30 02:28:36;;;;;;;17.90;10.18;;;;;;;;;;5102367;27;20073;-85
2024/01/30 02:31:02;;;;;;;19.52;10.13;;;;;;;;;;5133991;27;20050;-85
2024/01/30 02:33:28;;;;;;;20.77;10.60;;;;;;;;;;5126452;27;20568;-85
2024/01/30 02:35:54;;;;;;;;;;;;;;;;;;5085163;27;20502;-85
2024/01/30 02:38:20;;;;;;;20.15;10.27;;;;;;;;;;5121767;27;19970;-85
2024/01/30 02:40:46;;;;;;;18.45;11.02;;;;;;;;;;5138770;27;20039;-85
2024/01/30 02:43:12;;;;;;;;;;;;;;;;;;5122379;27;20399;-85
2024/01/30 02:45:38;;;;;;;19.45;9.57;;;;;;;;;;5138151;27;19923;-85
2024/01/30 02:48:05;;;;;;;18.73;10.38;;;;;;;;;;5136550;27;20129;-84
2024/01/30 02:50:31;;;;;;;;;;;;;;;;;;5100707;27;20043;-86
2024/01/30 02:52:57;;;;;;;19.30;10.77;;;;;;;;;;5116976;27;19919;-85
2024/01/30 02:55:23;;;;;;;21.67;11.55;;;;;;;;;;5102424;27;20054;-86
2024/01/30 02:57:49;;;;;;;;;;;;;;;;;;5117131;27;20039;-86
2024/01/30 03:00:15;;;;;;;18.80;10.70;;;;;;;;;;5134350;27;19927;-86
2024/01/30 03:02:41;;;;;;;;;;;;;;;;;;5100743;27;20039;-85
2024/01/30 03:05:07;;;;;;;20.95;10.35;;;;;;;;;;5099831;27;20351;-85
2024/01/30 03:07:33;;;;;;;;;;;;;;;;;;5100750;27;20056;-86
2024/01/30 03:09:59;;;;;;;23.58;9.88;;;;;;;;;;5116245;27;19919;-85
2024/01/30 03:12:25;;;;;;;19.98;10.43;;;;;;;;;;5100600;27;20047;-85
2024/01/30 03:14:51;;;;;;;;;;;;;;;;;;5113618;27;20043;-84
2024/01/30 03:17:17;;;;;;;18.38;10.13;;;;;;;;;;5100534;27;19919;-86
2024/01/30 03:19:43;;;;;;;;;;;;;;;;;;5126463;27;20038;-85
2024/01/30 03:22:09;;;;;;;18.33;9.75;;;;;;;;;;5119418;27;20348;-85
2024/01/30 03:24:35;;;;;;;16.42;9.15;;;;;;;;;;5137824;27;20047;-84
2024/01/30 03:27:01;;;;;;;;;;;;;;;;;;5132538;27;20114;-86
2024/01/30 03:29:27;;;;;;;16.52;9.45;;;;;;;;;;5117367;27;19963;-86
2024/01/30 03:31:54;;;;;;;;;;;;;;;;;;5115810;27;20055;-85
2024/01/30 03:34:20;;;;;;;21.00;10.00;;;;;;;;;;5115398;27;19972;-84
2024/01/30 03:36:46;;;;;;;18.92;9.93;;;;;;;;;;5113559;27;20035;-85
2024/01/30 03:39:12;;;;;;;17.17;10.05;;;;;;;;;;5117950;27;20040;-84
2024/01/30 03:41:38;;;;;;;;;;;;;;;;;;5105659;27;20050;-82
2024/01/30 03:44:04;;;;;;;20.77;9.57;;;;;;;;;;5119412;27;19918;-85
2024/01/30 03:46:30;;;;;;;21.85;10.57;;;;;;;;;;5102093;27;20042;-85
2024/01/30 03:48:56;;;;;;;20.77;10.27;;;;;;;;;;5108516;27;20035;-86
2024/01/30 03:51:22;;;;;;;21.20;10.98;;;;;;;;;;5111876;27;20078;-85
2024/01/30 03:53:48;;;;;;;19.33;10.93;;;;;;;;;;5116081;27;20515;-85
2024/01/30 03:56:14;;;;;;;16.50;10.45;;;;;;;;;;5099657;27;20601;-85
2024/01/30 03:58:41;;;;;;;17.08;10.30;;;;;;;;;;5105556;27;20043;-83
2024/01/30 04:01:07;;;;;;;20.83;10.35;;;;;;;;;;5099649;27;20039;-85
2024/01/30 04:03:33;;;;;;;22.38;10.98;;;;;;;;;;5099928;27;20050;-86
2024/01/30 04:05:59;;;;;;;22.90;10.30;;;;;;;;;;5097637;27;20043;-84
2024/01/30 04:08:25;;;;;;;;;;;;;;;;;;5098581;27;20399;-85
2024/01/30 04:10:51;;;;;;;23.13;10.77;;;;;;;;;;5116114;27;19919;-85
2024/01/30 04:13:17;;;;;;;19.33;10.23;;;;;;;;;;5099518;27;20082;-85
2024/01/30 04:15:43;;;;;;;18.70;9.75;;;;;;;;;;5132963;27;20047;-83
2024/01/30 04:18:09;;;;;;;17.40;9.95;;;;;;;;;;5099471;27;20062;-86
2024/01/30 04:20:35;;;;;;;22.42;10.40;;;;;;;;;;5132309;27;20394;-85
2024/01/30 04:23:01;;;;;;;21.55;10.60;;;;;;;;;;5115213;27;20497;-85
2024/01/30 04:25:27;;;;;;;23.52;10.25;;;;;;;;;;5099358;27;20043;-85
2024/01/30 04:27:53;;;;;;;20.63;10.38;;;;;;;;;;5116143;27;20043;-86
2024/01/30 04:30:19;;;;;;;16.73;9.90;;;;;;;;;;5110972;28;20056;-85
2024/01/30 04:32:45;;;;;;;;;;;;;;;;;;5095612;28;20039;-84
2024/01/30 04:35:11;;;;;;;19.20;9.95;;;;;;;;;;5109171;28;20455;-85
2024/01/30 04:37:37;;;;;;;21.27;10.13;;;;;;;;;;5094905;28;20077;-86
2024/01/30 04:40:03;;;;;;;;;;;;;;;;;;5095440;28;20598;-85
2024/01/30 04:42:29;;;;;;;22.63;10.60;;;;;;;;;;5112456;28;19970;-86
2024/01/30 04:44:55;;;;;;;21.20;10.63;;;;;;;;;;5094765;28;20039;-85
2024/01/30 04:47:21;;;;;;;21.23;10.23;;;;;;;;;;5080058;27;20040;-85
2024/01/30 04:49:47;;;;;;;19.92;10.80;;;;;;;;;;5111205;28;20081;-84
2024/01/30 04:52:14;;;;;;;18.65;9.98;;;;;;;;;;5094451;28;20055;-85
2024/01/30 04:54:40;;;;;;;19.58;11.10;;;;;;;;;;5112381;28;20543;-86
2024/01/30 04:57:12;;;;;;;19.95;10.48;;;;;;;;;;5117076;27;20581;-85
2024/01/30 04:59:38;;;;;;;18.13;10.25;;;;;;;;;;5132683;27;20118;-85
2024/01/30 05:02:04;;;;;;;21.77;10.70;;;;;;;;;;5115052;27;20430;-86
2024/01/30 05:04:30;;;;;;;19.77;10.18;;;;;;;;;;5132737;27;20047;-85
2024/01/30 05:06:56;;;;;;;20.13;10.85;;;;;;;;;;5129503;27;20039;-84
2024/01/30 05:09:22;;;;;;;22.23;10.57;;;;;;;;;;5095315;28;20043;-85
2024/01/30 05:11:48;;;;;;;20.70;10.10;;;;;;;;;;5094726;28;20048;-83
2024/01/30 05:14:15;;;;;;;18.98;9.98;;;;;;;;;;5095015;28;20104;-85
2024/01/30 05:16:42;;;;;;;19.00;10.80;;;;;;;;;;5094564;28;20083;-85
2024/01/30 05:19:09;;;;;;;17.67;10.18;;;;;;;;;;5111181;28;20222;-85
2024/01/30 05:21:35;;;;;;;19.73;11.02;;;;;;;;;;5111733;27;20062;-85
2024/01/30 05:24:01;;;;;;;;;;;;;;;;;;5094828;28;20434;-86
2024/01/30 05:26:27;;;;;;;19.65;11.00;;;;;;;;;;5119119;27;19930;-85
2024/01/30 05:28:53;;;;;;;21.50;11.32;;;;;;;;;;5114466;27;20047;-85
2024/01/30 05:31:19;;;;;;;20.75;10.93;;;;;;;;;;5114471;27;20047;-85
2024/01/30 05:33:45;;;;;;;;;;;;;;;;;;5132679;27;20082;-86
2024/01/30 05:36:14;;;;;;;22.65;11.88;;;;;;;;;;5130263;27;19967;-86
2024/01/30 05:38:40;;;;;;;22.65;11.35;;;;;;;;;;5098260;27;20044;-86
2024/01/30 05:41:06;;;;;;;24.05;12.05;;;;;;;;;;5131532;27;20039;-85
2024/01/30 05:43:32;;;;;;;22.80;11.90;;;;;;;;;;5089347;27;20055;-86
2024/01/30 05:45:58;;;;;;;20.52;11.50;;;;;;;;;;5105670;28;20051;-85
2024/01/30 05:48:24;;;;;;;20.70;11.20;;;;;;;;;;5094648;28;20052;-84
2024/01/30 05:50:51;;;;;;;17.15;10.13;;;;;;;;;;5110350;28;20079;-83
2024/01/30 05:53:16;;;;;;;;;;;;;;;;;;5110241;28;20511;-85
2024/01/30 05:55:43;;;;;;;24.70;9.90;;;;;;;;;;5093509;28;19919;-85
2024/01/30 05:58:09;;;;;;;18.15;11.07;;;;;;;;;;5110842;28;20449;-85
2024/01/30 06:00:35;;;;;;;21.60;10.52;;;;;;;;;;5110824;28;20422;-85
2024/01/30 06:03:01;;;;;;;19.25;10.50;;;;;;;;;;5112212;28;20441;-85
2024/01/30 06:05:27;;;;;;;19.13;10.40;;;;;;;;;;5113225;28;20039;-85
2024/01/30 06:07:53;;;;;;;18.40;10.27;;;;;;;;;;5114344;27;20043;-83
2024/01/30 06:10:19;;;;;;;20.05;10.85;;;;;;;;;;5136086;27;20050;-85
2024/01/30 06:12:45;;;;;;;;;;;;;;;;;;5125230;27;20052;-85
2024/01/30 06:15:12;;;;;;;20.95;11.02;;;;;;;;;;5114710;28;20510;-86
2024/01/30 06:17:38;;;;;;;19.27;9.95;;;;;;;;;;5098298;28;20484;-85
2024/01/30 06:20:04;;;;;;;;;;;;;;;;;;5113776;28;20393;-85
2024/01/30 06:22:30;;;;;;;20.17;10.40;;;;;;;;;;5118030;27;19927;-85
2024/01/30 06:24:56;;;;;;;18.92;11.02;;;;;;;;;;5127816;27;20051;-84
2024/01/30 06:27:22;;;;;;;21.05;11.07;;;;;;;;;;5089459;27;20047;-85
2024/01/30 06:29:48;;;;;;;;;;;;;;;;;;5118754;27;20127;-84
2024/01/30 06:32:14;;;;;;;20.10;10.45;;;;;;;;;;5117956;27;19965;-85
2024/01/30 06:34:40;;;;;;;;;;;;;;;;;;5118878;27;20035;-85
2024/01/30 06:37:07;;;;;;;16.75;9.80;;;;;;;;;;5113897;27;20266;-84
2024/01/30 06:39:32;;;;;;;;;;;;;;;;;;5115164;28;20058;-85
2024/01/30 06:41:58;;;;;;;21.80;11.38;;;;;;;;;;5114149;28;19924;-85
2024/01/30 06:44:25;;;;;;;18.35;11.20;;;;;;;;;;5119358;27;20051;-85
2024/01/30 06:46:51;;;;;;;20.45;10.48;;;;;;;;;;5101007;27;20484;-85
2024/01/30 06:49:17;;;;;;;21.20;11.77;;;;;;;;;;5117637;27;20093;-86
2024/01/30 06:51:43;;;;;;;22.70;10.80;;;;;;;;;;5108469;28;20044;-85
2024/01/30 06:54:09;;;;;;;19.48;9.88;;;;;;;;;;5080539;28;20063;-85
2024/01/30 06:56:35;;;;;;;19.25;10.55;;;;;;;;;;5111103;27;20051;-85
2024/01/30 06:59:01;;;;;;;18.95;10.38;;;;;;;;;;5134454;27;20484;-84
2024/01/30 07:01:30;;;;;;;16.13;9.80;;;;;;;;;;5117604;27;20396;-85
2024/01/30 07:03:57;;;;;;;17.50;9.73;;;;;;;;;;5100716;27;20051;-82
2024/01/30 07:06:23;;;;;;;19.10;10.80;;;;;;;;;;5112784;28;20047;-85
2024/01/30 07:08:49;;;;;;;;;;;;;;;;;;5097385;28;20050;-85
2024/01/30 07:11:22;;;;;;;19.60;10.80;;;;;;;;;;5099160;28;19920;-84
2024/01/30 07:13:48;;;;;;;19.13;10.13;;;;;;;;;;5097633;28;20089;-85
2024/01/30 07:16:15;;;;;;;19.52;9.73;;;;;;;;;;5133016;27;20392;-85
2024/01/30 07:18:41;;;;;;;18.30;9.95;;;;;;;;;;5100648;27;20063;-84
2024/01/30 07:21:07;;;;;;;;;;;;;;;;;;5115262;27;20427;-86
2024/01/30 07:23:34;;;;;;;18.67;10.82;;;;;;;;;;5134170;27;19919;-84
2024/01/30 07:26:01;;;;;;;19.75;10.40;;;;;;;;;;5117083;27;20051;-84
2024/01/30 07:28:27;;;;;;;18.50;9.80;;;;;;;;;;5124025;27;20407;-84
2024/01/30 07:30:53;;;;;;;17.65;10.27;;;;;;;;;;5127274;27;20086;-84
2024/01/30 07:33:19;;;;;;;19.95;10.38;;;;;;;;;;5117024;27;20043;-84
2024/01/30 07:35:45;;;;;;;;;;;;;;;;;;5116158;27;20472;-81
2024/01/30 07:38:11;;;;;;;19.60;10.00;;;;;;;;;;5131699;27;19926;-83
2024/01/30 07:40:37;;;;;;;21.48;11.70;;;;;;;;;;5113602;27;20100;-82
2024/01/30 07:43:03;;;;;;;;;;;;;;;;;;5109643;27;20468;-84
2024/01/30 07:45:33;;;;;;;19.20;10.68;;;;;;;;;;5119990;27;19972;-84
2024/01/30 07:47:59;;;;;;;16.88;9.23;;;;;;;;;;5102846;27;20048;-85
2024/01/30 07:50:26;;;;;;;20.33;10.40;;;;;;;;;;5123620;27;20534;-84
2024/01/30 07:52:54;;;;;;;17.90;10.10;;;;;;;;;;5110655;28;20040;-87
2024/01/30 07:55:31;;;;;;;19.25;9.70;;;;;;;;;;5127155;27;20050;-87
2024/01/30 07:57:58;;;;;;;16.25;10.13;;;;;;;;;;5106220;27;20046;-85
2024/01/30 08:00:25;;;;;;;19.08;9.77;;;;;;;;;;5123192;27;20039;-87
2024/01/30 08:02:54;;;;;;;18.88;10.10;;;;;;;;;;5122580;27;20036;-87
2024/01/30 08:05:22;;;;;;;19.77;9.93;;;;;;;;;;5108936;28;20069;-86
2024/01/30 08:07:48;;;;;;;19.15;9.95;;;;;;;;;;5105257;27;20081;-87
2024/01/30 08:10:14;;;;;;;;;;;;;;;;;;5102643;27;20143;-88
2024/01/30 08:12:40;;;;;;;16.55;9.10;;;;;;;;;;5106280;27;19924;-88
2024/01/30 08:15:06;;;;;;;18.20;10.07;;;;;;;;;;5112247;28;20039;-85
2024/01/30 08:17:32;;;;;;;18.00;9.68;;;;;;;;;;5124621;27;20502;-87
2024/01/30 08:19:58;;;;;;;17.70;9.65;;;;;;;;;;5111980;28;20088;-88
2024/01/30 08:22:24;;;;;;;18.95;9.82;;;;;;;;;;5108690;27;20126;-86
2024/01/30 08:24:50;;;;;;;;;;;;;;;;;;5133605;27;20376;-85
2024/01/30 08:27:17;;;;;;;17.67;10.15;;;;;;;;;;5132526;27;20024;-87
2024/01/30 08:29:43;;;;;;;;;;;;;;;;;;5108260;27;20079;-86
2024/01/30 08:32:09;;;;;;;19.02;10.50;;;;;;;;;;5103907;28;20016;-86
2024/01/30 08:34:35;;;;;;;;;;;;;;;;;;5097324;28;20090;-85
2024/01/30 08:37:01;;;;;;;17.38;9.10;;;;;;;;;;5102204;27;20014;-86
2024/01/30 08:39:27;;;;;;;17.25;9.80;;;;;;;;;;5112171;27;20063;-87
2024/01/30 08:41:53;;;;;;;15.77;9.15;;;;;;;;;;5108915;28;20043;-88
2024/01/30 08:44:20;;;;;;;23.67;10.15;;;;;;;;;;5144683;27;20054;-87
2024/01/30 08:46:46;;;;;;;15.85;9.25;;;;;;;;;;5122374;27;20036;-88
2024/01/30 08:49:15;;;;;;;16.83;9.02;;;;;;;;;;5121049;27;20377;-83
2024/01/30 08:51:41;;;;;;;17.25;9.82;;;;;;;;;;5096277;27;20093;-83
2024/01/30 08:54:07;;;;;;;;;;;;;;;;;;5133726;27;20096;-84
2024/01/30 08:56:33;;;;;;;17.92;8.60;;;;;;;;;;5114346;27;19924;-88
2024/01/30 08:58:59;;;;;;;;;;;;;;;;;;5127647;27;20047;-86
2024/01/30 09:01:26;;;;;;;16.80;8.63;;;;;;;;;;5130057;27;19977;-87
2024/01/30 09:03:52;;;;;;;21.85;9.02;;;;;;;;;;5105839;28;20044;-85
2024/01/30 09:06:18;;;;;;;15.98;9.30;;;;;;;;;;5121150;27;20082;-87
2024/01/30 09:08:45;;;;;;;;;;;;;;;;;;5095325;28;20040;-83
2024/01/30 09:11:12;;;;;;;17.90;9.30;;;;;;;;;;5111794;27;20219;-83
2024/01/30 09:13:38;;;;;;;16.67;9.00;;;;;;;;;;5121524;27;20047;-86
2024/01/30 09:16:05;;;;;;;15.80;8.80;;;;;;;;;;5131177;27;20046;-86
2024/01/30 09:18:31;;;;;;;15.18;8.43;;;;;;;;;;5114165;27;20066;-86
2024/01/30 09:20:57;;;;;;;;;;;;;;;;;;5130241;27;20042;-85
2024/01/30 09:23:23;;;;;;;14.00;8.13;;;;;;;;;;5112298;27;19920;-80
2024/01/30 09:25:49;;;;;;;;;;;;;;;;;;5102874;28;20059;-83
2024/01/30 09:28:15;;;;;;;16.90;9.02;;;;;;;;;;5110153;27;19967;-82
2024/01/30 09:30:44;;;;;;;15.65;8.68;;;;;;;;;;5099664;28;20139;-84
2024/01/30 09:33:10;;;;;;;;;;;;;;;;;;5088060;28;20055;-82
2024/01/30 09:35:39;;;;;;;17.55;9.43;;;;;;;;;;5112452;27;19920;-83
2024/01/30 09:38:05;;;;;;;18.27;9.77;;;;;;;;;;5104807;28;20050;-83
2024/01/30 09:40:31;;;;;;;;;;;;;;;;;;5108556;27;20407;-83
2024/01/30 09:43:02;;;;;;;17.65;8.82;;;;;;;;;;5098702;28;20279;-84
2024/01/30 09:45:28;;;;;;;18.05;9.63;;;;;;;;;;5126688;27;20039;-83
2024/01/30 09:47:54;;;;;;;;;;;;;;;;;;5130361;27;20134;-83
2024/01/30 09:50:20;;;;;;;17.33;9.05;;;;;;;;;;5127910;27;20052;-84
2024/01/30 09:52:47;;;;;;;16.48;9.75;;;;;;;;;;5101906;28;20494;-84
2024/01/30 09:55:13;;;;;;;19.02;9.27;;;;;;;;;;5094588;28;20036;-84
2024/01/30 09:57:40;;;;;;;15.65;9.23;;;;;;;;;;5086030;28;20055;-83
2024/01/30 10:00:09;;;;;;;16.65;8.95;;;;;;;;;;5093915;28;20039;-83
2024/01/30 10:02:36;;;;;;;18.50;9.38;;;;;;;;;;5093944;28;20044;-83
2024/01/30 10:05:03;;;;;;;17.05;8.93;;;;;;;;;;5093488;28;20491;-84
2024/01/30 10:07:30;;;;;;;14.90;8.70;;;;;;;;;;5093307;28;20051;-84
2024/01/30 10:09:56;;;;;;;18.60;9.40;;;;;;;;;;5098903;28;20043;-83
2024/01/30 10:12:23;;;;;;;18.15;9.18;;;;;;;;;;5114457;28;20396;-83
2024/01/30 10:14:49;;;;;;;17.15;9.23;;;;;;;;;;5131668;28;20473;-83
2024/01/30 10:17:15;;;;;;;17.33;9.18;;;;;;;;;;5131744;28;20486;-83
2024/01/30 10:19:41;;;;;;;;;;;;;;;;;;5112978;28;20127;-83
2024/01/30 10:22:08;;;;;;;16.80;8.18;;;;;;;;;;5110776;28;20010;-83
2024/01/30 10:24:34;;;;;;;18.38;8.90;;;;;;;;;;5113195;28;20039;-82
2024/01/30 10:27:00;;;;;;;17.30;9.07;;;;;;;;;;5105518;28;20391;-82
2024/01/30 10:29:26;;;;;;;;;;;;;;;;;;5113762;28;20046;-83
2024/01/30 10:32:02;;;;;;;18.80;9.35;;;;;;;;;;5127230;28;19919;-83
2024/01/30 10:34:28;;;;;;;18.17;9.30;;;;;;;;;;5125772;28;20047;-84
2024/01/30 10:37:17;;;;;;;16.27;8.85;;;;;;;;;;5109515;28;20035;-84
2024/01/30 10:39:44;;;;;;;19.77;9.88;;;;;;;;;;5115365;28;20524;-84
2024/01/30 10:42:12;;;;;;;17.15;9.20;;;;;;;;;;5116562;28;20126;-86
2024/01/30 10:44:58;;;;;;;19.95;9.07;;;;;;;;;;5116955;28;20043;-85
2024/01/30 10:47:28;;;;;;;17.57;8.40;;;;;;;;;;5091745;28;20431;-82
2024/01/30 10:49:55;;;;;;;16.60;8.98;;;;;;;;;;5129948;28;20086;-82
2024/01/30 10:52:21;;;;;;;18.05;9.23;;;;;;;;;;5128992;28;20472;-82
2024/01/30 10:54:48;;;;;;;15.63;9.25;;;;;;;;;;5125689;27;20070;-82
2024/01/30 10:57:16;;;;;;;19.85;8.88;;;;;;;;;;5116928;27;20047;-84
2024/01/30 10:59:43;;;;;;;17.00;8.80;;;;;;;;;;5113359;27;20048;-82
2024/01/30 11:02:10;;;;;;;15.80;8.90;;;;;;;;;;5131603;27;20043;-83
2024/01/30 11:04:37;;;;;;;17.88;9.35;;;;;;;;;;5132337;27;20043;-88
2024/01/30 11:07:04;;;;;;;22.48;9.23;;;;;;;;;;5102300;28;20047;-82
2024/01/30 11:09:30;;;;;;;18.52;9.45;;;;;;;;;;5107901;28;20122;-83
2024/01/30 11:12:02;;;;;;;18.48;9.25;;;;;;;;;;5131046;27;20136;-84
2024/01/30 11:14:32;;;;;;;19.48;9.00;;;;;;;;;;5119902;27;20400;-81
2024/01/30 11:16:59;;;;;;;16.38;8.77;;;;;;;;;;5125875;27;20136;-85
2024/01/30 11:19:28;;;;;;;22.15;9.20;;;;;;;;;;5125529;27;20047;-85
2024/01/30 11:21:56;;;;;;;18.73;9.15;;;;;;;;;;5113065;27;20196;-83
2024/01/30 11:24:22;;;;;;;17.38;8.77;;;;;;;;;;5116371;27;20043;-85
2024/01/30 11:26:50;;;;;;;16.73;9.35;;;;;;;;;;5116298;27;20042;-84
2024/01/30 11:29:17;;;;;;;16.40;9.32;;;;;;;;;;5116917;27;20043;-86
2024/01/30 11:31:56;;;;;;;23.25;9.07;;;;;;;;;;5132662;27;20054;-85
2024/01/30 11:34:23;;;;;;;18.80;9.20;;;;;;;;;;5109461;27;20070;-83
2024/01/30 11:36:55;;;;;;;18.25;10.02;;;;;;;;;;5110855;27;20623;-82
2024/01/30 11:39:22;;;;;;;19.80;9.30;;;;;;;;;;5134278;27;20071;-84
2024/01/30 11:41:49;;;;;;;21.33;10.05;;;;;;;;;;5112932;28;20051;-84
2024/01/30 11:44:16;;;;;;;18.05;9.52;;;;;;;;;;5113302;28;20047;-85
2024/01/30 11:46:42;;;;;;;19.80;9.57;;;;;;;;;;5079109;28;20047;-85
2024/01/30 11:49:08;;;;;;;;;;;;;;;;;;5105232;27;20047;-83
2024/01/30 11:51:34;;;;;;;17.17;9.15;;;;;;;;;;5112623;27;20326;-82
2024/01/30 11:54:00;;;;;;;;;;;;;;;;;;5114001;28;20035;-83
2024/01/30 11:56:26;;;;;;;20.45;9.38;;;;;;;;;;5116208;27;20386;-84
2024/01/30 11:58:53;;;;;;;20.67;9.57;;;;;;;;;;5133031;27;20043;-84
2024/01/30 12:01:19;;;;;;;19.48;9.43;;;;;;;;;;5113200;27;20062;-85
2024/01/30 12:03:45;;;;;;;;;;;;;;;;;;5133389;27;20037;-84
2024/01/30 12:06:11;;;;;;;19.50;9.15;;;;;;;;;;5130811;27;19919;-84
2024/01/30 12:08:37;;;;;;;;;;;;;;;;;;5111722;27;20110;-84
2024/01/30 12:11:05;;;;;;;16.45;8.73;;;;;;;;;;5108841;28;20365;-84
2024/01/30 12:13:31;;;;;;;18.30;9.52;;;;;;;;;;5127564;27;20051;-84
2024/01/30 12:15:57;;;;;;;18.23;8.30;;;;;;;;;;5115168;27;20054;-83
2024/01/30 12:18:23;;;;;;;20.73;9.45;;;;;;;;;;5084175;27;20178;-84
2024/01/30 12:20:49;;;;;;;;;;;;;;;;;;5122397;27;20039;-84
2024/01/30 12:23:15;;;;;;;16.73;8.65;;;;;;;;;;5102360;28;19919;-84
2024/01/30 12:25:41;;;;;;;16.45;9.07;;;;;;;;;;5106230;27;20044;-83
2024/01/30 12:28:08;;;;;;;17.02;9.52;;;;;;;;;;5104755;28;20392;-84
2024/01/30 12:30:35;;;;;;;21.10;9.73;;;;;;;;;;5108743;28;20113;-83
2024/01/30 12:33:04;;;;;;;17.83;8.82;;;;;;;;;;5102069;28;20051;-80
2024/01/30 12:35:30;;;;;;;14.52;8.57;;;;;;;;;;5094230;28;20054;-82
2024/01/30 12:37:56;;;;;;;;;;;;;;;;;;5127021;27;20515;-82
2024/01/30 12:40:24;;;;;;;18.70;8.75;;;;;;;;;;5113627;27;19920;-84
2024/01/30 12:42:50;;;;;;;17.38;8.93;;;;;;;;;;5095230;27;20051;-84
2024/01/30 12:45:20;;;;;;;15.30;8.23;;;;;;;;;;5100305;28;20565;-83
2024/01/30 12:47:46;;;;;;;17.00;8.82;;;;;;;;;;5114205;27;20058;-83
2024/01/30 12:50:12;;;;;;;19.45;9.55;;;;;;;;;;5094200;28;20058;-84
2024/01/30 12:52:38;;;;;;;18.02;9.27;;;;;;;;;;5110930;27;20093;-83
2024/01/30 12:55:04;;;;;;;;;;;;;;;;;;5133027;27;20126;-84
2024/01/30 12:57:30;;;;;;;18.10;8.85;;;;;;;;;;5114707;27;20046;-84
2024/01/30 12:59:56;;;;;;;;;;;;;;;;;;5127960;27;20396;-83
2024/01/30 13:02:23;;;;;;;15.30;7.82;;;;;;;;;;5113082;27;19927;-85
2024/01/30 13:04:49;;;;;;;16.08;8.32;;;;;;;;;;5117634;27;20051;-84
2024/01/30 13:07:15;;;;;;;;;;;;;;;;;;5128007;27;20118;-85
2024/01/30 13:09:41;;;;;;;17.23;8.90;;;;;;;;;;5132334;27;19969;-83
2024/01/30 13:12:07;;;;;;;;;;;;;;;;;;5115052;27;20066;-85
2024/01/30 13:14:33;;;;;;;18.65;9.18;;;;;;;;;;5111844;28;20041;-84
2024/01/30 13:17:00;;;;;;;18.67;8.80;;;;;;;;;;5127481;27;20398;-84
2024/01/30 13:19:26;;;;;;;16.30;8.02;;;;;;;;;;5132080;27;20054;-84
2024/01/30 13:21:53;;;;;;;18.38;7.43;;;;;;;;;;5129737;27;20039;-84
2024/01/30 13:24:21;;;;;;;;;;;;;;;;;;5132710;27;20062;-84
2024/01/30 13:26:48;;;;;;;16.80;7.30;;;;;;;;;;5131451;27;20006;-84
2024/01/30 13:29:14;;;;;;;15.90;7.22;;;;;;;;;;5123063;27;20079;-84
2024/01/30 13:31:40;;;;;;;13.68;6.32;;;;;;;;;;5103610;28;20500;-84
2024/01/30 13:34:07;;;;;;;15.13;6.53;;;;;;;;;;5085304;27;20130;-84
2024/01/30 13:36:33;;;;;;;;;;;;;;;;;;5110109;28;20040;-84
2024/01/30 13:38:59;;;;;;;11.88;5.68;;;;;;;;;;5093758;28;19931;-84
2024/01/30 13:41:25;;;;;;;;;;;;;;;;;;5085858;28;20130;-84
2024/01/30 13:43:51;;;;;;;11.95;4.20;;;;;;;;;;5128867;27;20018;-84
2024/01/30 13:46:17;;;;;;;;;;;;;;;;;;5111362;28;20040;-85
2024/01/30 13:48:43;;;;;;;11.18;3.20;;;;;;;;;;5114517;27;19920;-84
2024/01/30 13:51:10;;;;;;;10.75;3.90;;;;;;;;;;5102521;28;20078;-84
2024/01/30 13:53:36;;;;;;;7.50;3.25;;;;;;;;;;5107964;27;20053;-84
2024/01/30 13:56:02;;;;;;;;;;;;;;;;;;5098940;28;20382;-87
2024/01/30 13:58:28;;;;;;;10.00;3.90;;;;;;;;;;5112430;28;19928;-85
2024/01/30 14:00:55;;;;;;;9.80;3.60;;;;;;;;;;5130817;27;20051;-83
2024/01/30 14:03:20;;;;;;;;;;;;;;;;;;5111338;28;20039;-86
2024/01/30 14:05:47;;;;;;;6.97;3.42;;;;;;;;;;5124135;28;19920;-83
2024/01/30 14:08:13;;;;;;;8.68;3.60;;;;;;;;;;5130452;28;20130;-85
2024/01/30 14:10:39;;;;;;;;;;;;;;;;;;5132076;28;20396;-85
2024/01/30 14:13:06;;;;;;;5.05;3.38;;;;;;;;;;5121320;28;19920;-86
2024/01/30 14:15:32;;;;;;;7.13;3.60;;;;;;;;;;5094222;28;20043;-85
2024/01/30 14:17:58;;;;;;;7.25;3.60;;;;;;;;;;5096703;28;20043;-85
2024/01/30 14:20:24;;;;;;;9.88;3.80;;;;;;;;;;5101292;28;20501;-85
2024/01/30 14:22:51;;;;;;;;;;;;;;;;;;5127815;28;20039;-82
2024/01/30 14:25:17;;;;;;;7.38;3.63;;;;;;;;;;5100781;28;19926;-85
2024/01/30 14:27:43;;;;;;;;;;;;;;;;;;5119134;28;20052;-82
2024/01/30 14:30:12;;;;;;;6.47;2.70;;;;;;;;;;5101182;27;19924;-85
2024/01/30 14:32:40;;;;;;;7.57;3.17;;;;;;;;;;5119196;27;20187;-84
2024/01/30 14:35:06;;;;;;;6.38;2.70;;;;;;;;;;5129773;27;20097;-85
2024/01/30 14:37:32;;;;;;;;;;;;;;;;;;5095143;27;20054;-85
2024/01/30 14:39:58;;;;;;;7.07;3.72;;;;;;;;;;5131951;27;19920;-85
2024/01/30 14:42:24;;;;;;;6.72;2.78;;;;;;;;;;5084238;27;20046;-85
2024/01/30 14:44:50;;;;;;;6.80;3.40;;;;;;;;;;5113232;27;20043;-84